createdAt,value
2018-06-01T00:00:35.131Z,99464
2018-06-01T00:03:03.214Z,99464
2018-06-01T00:05:32.108Z,99461
2018-06-01T00:08:00.982Z,99461
2018-06-01T00:10:29.120Z,99459
2018-06-01T00:12:57.235Z,99459
2018-06-01T00:15:25.365Z,99458
2018-06-01T00:17:53.469Z,99460
2018-06-01T00:20:21.627Z,99460
2018-06-01T00:22:49.758Z,99454
2018-06-01T00:25:17.870Z,99454
2018-06-01T00:30:21.138Z,99452
2018-06-01T00:32:49.248Z,99464
2018-06-01T00:35:18.111Z,99461
2018-06-01T00:37:46.220Z,99452
2018-06-01T00:40:14.335Z,99459
2018-06-01T00:42:42.466Z,99452
2018-06-01T00:45:11.341Z,99459
2018-06-01T00:47:39.483Z,99456
2018-06-01T00:50:07.607Z,99453
2018-06-01T00:52:36.486Z,99449
2018-06-01T00:58:04.706Z,99445
2018-06-01T01:00:32.820Z,99445
2018-06-01T01:03:01.001Z,99444
2018-06-01T01:05:29.109Z,99451
2018-06-01T01:07:57.995Z,99450
2018-06-01T01:10:26.113Z,99455
2018-06-01T01:12:54.213Z,99455
2018-06-01T01:15:22.326Z,99456
2018-06-01T01:17:50.441Z,99452
2018-06-01T01:20:18.562Z,99455
2018-06-01T01:22:46.671Z,99459
2018-06-01T01:25:14.769Z,99456
2018-06-01T01:27:42.884Z,99464
2018-06-01T01:30:10.994Z,99459
2018-06-01T01:32:39.886Z,99468
2018-06-01T01:35:08.002Z,99468
2018-06-01T01:37:36.121Z,99469
2018-06-01T01:40:04.224Z,99475
2018-06-01T01:42:32.350Z,99482
2018-06-01T01:45:00.450Z,99487
2018-06-01T01:47:28.583Z,99493
2018-06-01T01:49:56.695Z,99492
2018-06-01T01:52:24.805Z,99491
2018-06-01T01:54:52.918Z,99484
2018-06-01T01:57:21.030Z,99491
2018-06-01T01:59:49.141Z,99488
2018-06-01T02:02:17.238Z,99492
2018-06-01T02:04:46.129Z,99499
2018-06-01T02:07:14.996Z,99500
2018-06-01T02:09:43.127Z,99500
2018-06-01T02:12:11.303Z,99496
2018-06-01T02:14:39.404Z,99491
2018-06-01T02:17:07.524Z,99489
2018-06-01T02:19:35.660Z,99483
2018-06-01T02:22:03.774Z,99504
2018-06-01T02:24:32.654Z,99490
2018-06-01T02:27:00.797Z,99492
2018-06-01T02:29:28.913Z,99489
2018-06-01T02:31:57.036Z,99488
2018-06-01T02:34:25.158Z,99483
2018-06-01T02:36:53.262Z,99481
2018-06-01T02:39:22.145Z,99474
2018-06-01T02:41:50.258Z,99475
2018-06-01T02:44:18.385Z,99473
2018-06-01T02:46:46.493Z,99472
2018-06-01T02:49:15.386Z,99468
2018-06-01T02:51:44.276Z,99476
2018-06-01T02:54:13.149Z,99472
2018-06-01T02:56:41.259Z,99469
2018-06-01T02:59:10.118Z,99465
2018-06-01T03:01:38.252Z,99462
2018-06-01T03:04:06.365Z,99462
2018-06-01T03:06:52.370Z,99462
2018-06-01T03:09:20.480Z,99472
2018-06-01T03:11:48.592Z,99464
2018-06-01T03:14:16.713Z,99457
2018-06-01T03:16:45.588Z,99462
2018-06-01T03:19:13.721Z,99462
2018-06-01T03:21:41.829Z,99469
2018-06-01T03:24:09.956Z,99476
2018-06-01T03:26:38.832Z,99472
2018-06-01T03:29:06.980Z,99475
2018-06-01T03:31:35.118Z,99468
2018-06-01T03:34:03.301Z,99469
2018-06-01T03:36:31.413Z,99468
2018-06-01T03:38:59.527Z,99469
2018-06-01T03:41:28.408Z,99459
2018-06-01T03:43:56.519Z,99466
2018-06-01T03:46:24.633Z,99468
2018-06-01T03:48:52.752Z,99468
2018-06-01T03:51:21.649Z,99476
2018-06-01T03:53:50.522Z,99474
2018-06-01T03:56:18.656Z,99470
2018-06-01T03:58:46.780Z,99472
2018-06-01T04:01:14.901Z,99483
2018-06-01T04:03:43.051Z,99482
2018-06-01T04:06:11.931Z,99483
2018-06-01T04:08:40.050Z,99486
2018-06-01T04:11:08.210Z,99489
2018-06-01T04:13:37.105Z,99489
2018-06-01T04:16:05.976Z,99496
2018-06-01T04:18:34.103Z,99502
2018-06-01T04:21:02.226Z,99506
2018-06-01T04:23:30.328Z,99508
2018-06-01T04:25:59.247Z,99511
2018-06-01T04:28:27.374Z,99514
2018-06-01T04:30:55.511Z,99519
2018-06-01T04:33:23.631Z,99517
2018-06-01T04:35:51.764Z,99525
2018-06-01T04:38:19.864Z,99523
2018-06-01T04:40:48.037Z,99520
2018-06-01T04:43:16.250Z,99515
2018-06-01T04:45:44.358Z,99516
2018-06-01T04:48:12.534Z,99521
2018-06-01T04:50:40.738Z,99518
2018-06-01T04:53:08.926Z,99525
2018-06-01T04:55:37.065Z,99537
2018-06-01T04:58:05.962Z,99536
2018-06-01T05:00:34.075Z,99537
2018-06-01T05:03:02.267Z,99548
2018-06-01T05:05:30.408Z,99542
2018-06-01T05:07:58.554Z,99541
2018-06-01T05:10:26.709Z,99543
2018-06-01T05:12:54.850Z,99547
2018-06-01T05:15:22.979Z,99547
2018-06-01T05:17:51.184Z,99546
2018-06-01T05:20:19.758Z,99539
2018-06-01T05:22:47.930Z,99546
2018-06-01T05:25:16.083Z,99550
2018-06-01T05:27:45.588Z,99552
2018-06-01T05:30:13.742Z,99551
2018-06-01T05:32:41.884Z,99546
2018-06-01T05:35:10.816Z,99557
2018-06-01T05:37:39.208Z,99552
2018-06-01T05:40:07.377Z,99553
2018-06-01T05:42:35.604Z,99562
2018-06-01T05:45:03.859Z,99556
2018-06-01T05:47:32.083Z,99565
2018-06-01T05:50:00.271Z,99567
2018-06-01T05:52:29.180Z,99563
2018-06-01T05:54:57.317Z,99564
2018-06-01T05:57:25.570Z,99564
2018-06-01T05:59:53.781Z,99573
2018-06-01T06:02:22.828Z,99577
2018-06-01T06:04:51.008Z,99573
2018-06-01T06:07:19.204Z,99578
2018-06-01T06:09:47.374Z,99584
2018-06-01T06:12:15.543Z,99586
2018-06-01T06:14:43.697Z,99584
2018-06-01T06:17:11.942Z,99580
2018-06-01T06:19:40.186Z,99577
2018-06-01T06:22:08.434Z,99580
2018-06-01T06:24:36.846Z,99573
2018-06-01T06:27:05.122Z,99584
2018-06-01T06:29:33.278Z,99588
2018-06-01T06:32:01.453Z,99581
2018-06-01T06:34:30.400Z,99576
2018-06-01T06:36:58.807Z,99590
2018-06-01T06:39:27.729Z,99589
2018-06-01T06:41:56.644Z,99592
2018-06-01T06:44:24.814Z,99594
2018-06-01T06:46:53.092Z,99597
2018-06-01T06:49:21.390Z,99607
2018-06-01T06:51:49.555Z,99612
2018-06-01T06:54:17.740Z,99611
2018-06-01T06:56:45.947Z,99616
2018-06-01T06:59:14.154Z,99616
2018-06-01T07:01:42.282Z,99624
2018-06-01T07:04:10.455Z,99625
2018-06-01T07:06:38.615Z,99626
2018-06-01T07:09:08.507Z,99622
2018-06-01T07:11:37.697Z,99628
2018-06-01T07:14:05.968Z,99627
2018-06-01T07:16:34.224Z,99630
2018-06-01T07:19:02.508Z,99634
2018-06-01T07:21:30.880Z,99629
2018-06-01T07:23:59.095Z,99634
2018-06-01T07:26:27.240Z,99640
2018-06-01T07:28:55.464Z,99640
2018-06-01T07:31:23.655Z,99640
2018-06-01T07:33:52.609Z,99644
2018-06-01T07:36:20.790Z,99648
2018-06-01T07:38:48.963Z,99646
2018-06-01T07:41:17.970Z,99653
2018-06-01T07:43:46.162Z,99653
2018-06-01T07:46:14.321Z,99653
2018-06-01T07:48:42.534Z,99656
2018-06-01T07:51:10.755Z,99649
2018-06-01T07:53:38.975Z,99654
2018-06-01T07:56:07.353Z,99659
2018-06-01T07:58:35.621Z,99655
2018-06-01T08:01:04.077Z,99669
2018-06-01T08:03:32.420Z,99663
2018-06-01T08:06:00.696Z,99667
2018-06-01T08:08:28.864Z,99666
2018-06-01T08:10:57.173Z,99668
2018-06-01T08:13:25.356Z,99663
2018-06-01T08:15:54.363Z,99663
2018-06-01T08:18:23.365Z,99660
2018-06-01T08:20:52.412Z,99662
2018-06-01T08:23:20.665Z,99661
2018-06-01T08:25:48.842Z,99665
2018-06-01T08:28:17.306Z,99660
2018-06-01T08:30:45.509Z,99661
2018-06-01T08:33:13.877Z,99664
2018-06-01T08:35:42.244Z,99668
2018-06-01T08:38:10.445Z,99660
2018-06-01T08:40:38.657Z,99657
2018-06-01T08:43:07.140Z,99659
2018-06-01T08:45:35.437Z,99655
2018-06-01T08:48:03.796Z,99651
2018-06-01T08:50:32.180Z,99648
2018-06-01T08:53:00.393Z,99658
2018-06-01T08:55:28.647Z,99652
2018-06-01T08:57:56.903Z,99655
2018-06-01T09:00:25.050Z,99651
2018-06-01T09:02:53.946Z,99660
2018-06-01T09:05:22.952Z,99645
2018-06-01T09:07:51.482Z,99646
2018-06-01T09:10:19.969Z,99657
2018-06-01T09:12:48.019Z,99655
2018-06-01T09:15:16.232Z,99651
2018-06-01T09:17:44.377Z,99646
2018-06-01T09:20:12.610Z,99650
2018-06-01T09:22:40.892Z,99647
2018-06-01T09:25:09.826Z,99648
2018-06-01T09:27:38.285Z,99645
2018-06-01T09:30:06.476Z,99648
2018-06-01T09:32:35.463Z,99648
2018-06-01T09:35:03.678Z,99644
2018-06-01T09:37:31.889Z,99648
2018-06-01T09:40:00.104Z,99646
2018-06-01T09:42:29.105Z,99646
2018-06-01T09:44:58.042Z,99646
2018-06-01T09:47:26.166Z,99645
2018-06-01T09:49:55.121Z,99644
2018-06-01T09:52:23.316Z,99639
2018-06-01T09:54:51.526Z,99637
2018-06-01T09:57:20.003Z,99632
2018-06-01T09:59:49.118Z,99632
2018-06-01T10:02:18.136Z,99626
2018-06-01T10:04:46.506Z,99619
2018-06-01T10:07:14.942Z,99627
2018-06-01T10:09:43.154Z,99617
2018-06-01T10:12:12.190Z,99618
2018-06-01T10:14:40.406Z,99616
2018-06-01T10:17:08.700Z,99615
2018-06-01T10:19:36.924Z,99611
2018-06-01T10:22:05.143Z,99601
2018-06-01T10:24:34.520Z,99603
2018-06-01T10:27:02.730Z,99600
2018-06-01T10:29:31.089Z,99600
2018-06-01T10:31:59.270Z,99603
2018-06-01T10:34:27.603Z,99602
2018-06-01T10:36:56.548Z,99602
2018-06-01T10:39:24.750Z,99598
2018-06-01T10:41:53.025Z,99600
2018-06-01T10:44:21.278Z,99592
2018-06-01T10:46:49.554Z,99589
2018-06-01T10:49:17.709Z,99593
2018-06-01T10:51:46.751Z,99593
2018-06-01T10:54:14.939Z,99586
2018-06-01T10:56:43.095Z,99586
2018-06-01T10:59:11.249Z,99590
2018-06-01T11:01:40.283Z,99585
2018-06-01T11:04:08.366Z,99583
2018-06-01T11:06:36.538Z,99580
2018-06-01T11:09:04.678Z,99586
2018-06-01T11:11:33.603Z,99594
2018-06-01T11:14:01.737Z,99589
2018-06-01T11:16:30.651Z,99581
2018-06-01T11:18:59.541Z,99582
2018-06-01T11:21:28.487Z,99586
2018-06-01T11:23:56.586Z,99584
2018-06-01T11:26:24.717Z,99581
2018-06-01T11:28:52.893Z,99575
2018-06-01T11:31:21.061Z,99579
2018-06-01T11:33:49.209Z,99577
2018-06-01T11:36:17.334Z,99570
2018-06-01T11:38:45.473Z,99563
2018-06-01T11:41:14.383Z,99570
2018-06-01T11:43:42.544Z,99572
2018-06-01T11:46:11.526Z,99573
2018-06-01T11:48:39.614Z,99569
2018-06-01T11:51:08.596Z,99564
2018-06-01T11:53:36.814Z,99563
2018-06-01T11:56:04.973Z,99560
2018-06-01T11:58:33.870Z,99550
2018-06-01T12:01:02.895Z,99547
2018-06-01T12:03:31.032Z,99547
2018-06-01T12:05:59.980Z,99541
2018-06-01T12:08:28.121Z,99529
2018-06-01T12:10:57.096Z,99527
2018-06-01T12:13:25.189Z,99518
2018-06-01T12:15:54.340Z,99512
2018-06-01T12:18:22.497Z,99504
2018-06-01T12:20:50.662Z,99509
2018-06-01T12:23:18.878Z,99497
2018-06-01T12:25:47.035Z,99502
2018-06-01T12:28:15.175Z,99500
2018-06-01T12:30:44.109Z,99506
2018-06-01T12:33:12.280Z,99502
2018-06-01T12:35:40.453Z,99506
2018-06-01T12:38:08.651Z,99506
2018-06-01T12:40:36.811Z,99519
2018-06-01T12:43:04.974Z,99512
2018-06-01T12:45:33.867Z,99517
2018-06-01T12:48:03.753Z,99516
2018-06-01T12:50:31.905Z,99522
2018-06-01T12:53:00.193Z,99516
2018-06-01T12:55:28.389Z,99518
2018-06-01T12:57:56.618Z,99520
2018-06-01T13:00:25.505Z,99515
2018-06-01T13:02:54.393Z,99520
2018-06-01T13:05:23.295Z,99517
2018-06-01T13:07:52.180Z,99513
2018-06-01T13:10:21.076Z,99502
2018-06-01T13:12:49.976Z,99500
2018-06-01T13:15:18.118Z,99503
2018-06-01T13:17:46.233Z,99511
2018-06-01T13:20:15.113Z,99535
2018-06-01T13:22:44.018Z,99531
2018-06-01T13:25:12.907Z,99519
2018-06-01T13:27:41.810Z,99526
2018-06-01T13:30:10.706Z,99526
2018-06-01T13:32:39.613Z,99540
2018-06-01T13:35:07.794Z,99548
2018-06-01T13:37:35.960Z,99560
2018-06-01T13:40:04.081Z,99555
2018-06-01T13:42:32.217Z,99545
2018-06-01T13:45:01.109Z,99539
2018-06-01T13:47:30.002Z,99537
2018-06-01T13:49:58.965Z,99534
2018-06-01T13:52:27.121Z,99530
2018-06-01T13:54:55.236Z,99537
2018-06-01T13:57:23.378Z,99538
2018-06-01T13:59:51.522Z,99555
2018-06-01T14:02:19.658Z,99588
2018-06-01T14:04:47.809Z,99590
2018-06-01T14:07:15.947Z,99608
2018-06-01T14:09:44.068Z,99611
2018-06-01T14:12:12.193Z,99609
2018-06-01T14:14:41.130Z,99624
2018-06-01T14:17:09.244Z,99635
2018-06-01T14:19:37.370Z,99647
2018-06-01T14:22:05.488Z,99655
2018-06-01T14:24:33.598Z,99655
2018-06-01T14:27:02.561Z,99665
2018-06-01T14:29:30.686Z,99660
2018-06-01T14:31:58.869Z,99647
2018-06-01T14:34:27.014Z,99640
2018-06-01T14:36:55.203Z,99647
2018-06-01T14:39:24.185Z,99652
2018-06-01T14:41:52.337Z,99672
2018-06-01T14:44:21.518Z,99671
2018-06-01T14:46:49.627Z,99657
2018-06-01T14:49:17.770Z,99658
2018-06-01T14:51:45.889Z,99653
2018-06-01T14:54:14.039Z,99635
2018-06-01T14:56:42.236Z,99628
2018-06-01T14:59:10.443Z,99606
2018-06-01T15:01:39.385Z,99596
2018-06-01T15:04:07.586Z,99595
2018-06-01T15:06:35.710Z,99581
2018-06-01T15:09:05.614Z,99577
2018-06-01T15:11:34.533Z,99575
2018-06-01T15:14:02.686Z,99570
2018-06-01T15:16:30.854Z,99566
2018-06-01T15:18:59.004Z,99565
2018-06-01T15:21:27.156Z,99555
2018-06-01T15:23:55.311Z,99557
2018-06-01T15:26:24.265Z,99557
2018-06-01T15:28:52.404Z,99555
2018-06-01T15:31:20.571Z,99567
2018-06-01T15:33:49.504Z,99553
2018-06-01T15:36:17.636Z,99561
2018-06-01T15:38:46.664Z,99560
2018-06-01T15:41:14.812Z,99575
2018-06-01T15:43:43.724Z,99585
2018-06-01T15:46:11.863Z,99592
2018-06-01T15:48:40.037Z,99588
2018-06-01T15:51:08.207Z,99590
2018-06-01T15:53:36.337Z,99591
2018-06-01T15:56:04.496Z,99593
2018-06-01T15:58:33.401Z,99592
2018-06-01T16:01:02.320Z,99581
2018-06-01T16:03:30.463Z,99588
2018-06-01T16:05:59.389Z,99589
2018-06-01T16:08:27.553Z,99592
2018-06-01T16:10:55.813Z,99594
2018-06-01T16:13:25.040Z,99592
2018-06-01T16:15:53.202Z,99591
2018-06-01T16:18:22.097Z,99594
2018-06-01T16:20:51.023Z,99582
2018-06-01T16:23:19.169Z,99587
2018-06-01T16:25:48.069Z,99584
2018-06-01T16:28:17.011Z,99580
2018-06-01T16:30:45.741Z,99578
2018-06-01T16:33:14.640Z,99581
2018-06-01T16:35:43.547Z,99591
2018-06-01T16:38:11.706Z,99592
2018-06-01T16:40:39.849Z,99600
2018-06-01T16:43:07.985Z,99595
2018-06-01T16:45:36.873Z,99599
2018-06-01T16:48:05.812Z,99589
2018-06-01T16:50:33.959Z,99595
2018-06-01T16:53:02.137Z,99606
2018-06-01T16:55:30.269Z,99606
2018-06-01T16:57:58.428Z,99609
2018-06-01T17:00:26.570Z,99606
2018-06-01T17:02:54.718Z,99612
2018-06-01T17:05:23.071Z,99613
2018-06-01T17:07:52.017Z,99607
2018-06-01T17:10:21.838Z,99621
2018-06-01T17:12:50.943Z,99619
2018-06-01T17:15:19.090Z,99622
2018-06-01T17:17:47.996Z,99622
2018-06-01T17:20:16.890Z,99615
2018-06-01T17:22:45.833Z,99616
2018-06-01T17:25:13.970Z,99618
2018-06-01T17:27:42.897Z,99609
2018-06-01T17:30:11.034Z,99602
2018-06-01T17:32:39.199Z,99595
2018-06-01T17:35:07.354Z,99592
2018-06-01T17:37:35.501Z,99593
2018-06-01T17:40:03.747Z,99587
2018-06-01T17:42:32.670Z,99592
2018-06-01T17:45:00.822Z,99591
2018-06-01T17:47:29.720Z,99586
2018-06-01T17:49:58.633Z,99587
2018-06-01T17:52:27.531Z,99582
2018-06-01T17:54:55.686Z,99584
2018-06-01T17:57:24.788Z,99586
2018-06-01T17:59:53.684Z,99583
2018-06-01T18:02:22.591Z,99591
2018-06-01T18:04:51.477Z,99594
2018-06-01T18:07:20.410Z,99591
2018-06-01T18:09:48.567Z,99589
2018-06-01T18:12:16.712Z,99593
2018-06-01T18:14:45.611Z,99608
2018-06-01T18:17:13.745Z,99606
2018-06-01T18:19:41.895Z,99604
2018-06-01T18:22:10.026Z,99604
2018-06-01T18:24:38.182Z,99612
2018-06-01T18:27:06.306Z,99606
2018-06-01T18:29:35.230Z,99607
2018-06-01T18:32:03.388Z,99606
2018-06-01T18:34:32.387Z,99611
2018-06-01T18:37:00.459Z,99605
2018-06-01T18:39:29.385Z,99602
2018-06-01T18:41:57.534Z,99604
2018-06-01T18:44:26.423Z,99607
2018-06-01T18:46:55.368Z,99612
2018-06-01T18:49:23.495Z,99607
2018-06-01T18:51:52.384Z,99608
2018-06-01T18:54:21.301Z,99606
2018-06-01T18:56:50.205Z,99607
2018-06-01T18:59:18.347Z,99609
2018-06-01T19:01:46.506Z,99616
2018-06-01T19:04:14.641Z,99622
2018-06-01T19:06:42.797Z,99619
2018-06-01T19:09:11.789Z,99616
2018-06-01T19:11:39.858Z,99621
2018-06-01T19:14:08.012Z,99622
2018-06-01T19:16:36.169Z,99621
2018-06-01T19:19:04.314Z,99625
2018-06-01T19:21:33.231Z,99627
2018-06-01T19:24:01.381Z,99635
2018-06-01T19:26:30.275Z,99639
2018-06-01T19:28:59.198Z,99638
2018-06-01T19:31:27.423Z,99633
2018-06-01T19:33:55.667Z,99628
2018-06-01T19:36:23.833Z,99635
2018-06-01T19:38:51.966Z,99626
2018-06-01T19:41:20.100Z,99633
2018-06-01T19:43:48.277Z,99634
2018-06-01T19:46:16.413Z,99637
2018-06-01T19:48:45.327Z,99638
2018-06-01T19:51:13.464Z,99637
2018-06-01T19:53:41.582Z,99646
2018-06-01T19:56:10.485Z,99651
2018-06-01T19:58:38.611Z,99653
2018-06-01T20:01:06.749Z,99652
2018-06-01T20:03:34.886Z,99652
2018-06-01T20:06:03.021Z,99654
2018-06-01T20:08:31.181Z,99657
2018-06-01T20:10:59.303Z,99657
2018-06-01T20:13:27.468Z,99654
2018-06-01T20:15:55.602Z,99660
2018-06-01T20:18:24.504Z,99651
2018-06-01T20:20:52.692Z,99655
2018-06-01T20:23:20.822Z,99655
2018-06-01T20:25:49.092Z,99657
2018-06-01T20:28:17.278Z,99658
2018-06-01T20:30:45.420Z,99656
2018-06-01T20:33:13.596Z,99653
2018-06-01T20:35:41.734Z,99653
2018-06-01T20:38:10.762Z,99653
2018-06-01T20:40:38.913Z,99658
2018-06-01T20:43:07.078Z,99670
2018-06-01T20:45:36.027Z,99670
2018-06-01T20:48:04.171Z,99664
2018-06-01T20:50:32.316Z,99658
2018-06-01T20:53:00.475Z,99665
2018-06-01T20:55:28.662Z,99662
2018-06-01T20:57:56.808Z,99660
2018-06-01T21:00:24.952Z,99664
2018-06-01T21:02:53.864Z,99665
2018-06-01T21:05:22.780Z,99671
2018-06-01T21:07:50.924Z,99664
2018-06-01T21:10:19.862Z,99667
2018-06-01T21:12:47.982Z,99671
2018-06-01T21:15:16.202Z,99672
2018-06-01T21:17:44.339Z,99675
2018-06-01T21:20:12.506Z,99670
2018-06-01T21:22:40.697Z,99669
2018-06-01T21:25:09.631Z,99677
2018-06-01T21:27:37.829Z,99682
2018-06-01T21:30:05.960Z,99670
2018-06-01T21:32:34.882Z,99676
2018-06-01T21:35:03.062Z,99671
2018-06-01T21:37:31.204Z,99670
2018-06-01T21:39:59.359Z,99672
2018-06-01T21:42:27.491Z,99668
2018-06-01T21:44:55.651Z,99664
2018-06-01T21:47:24.536Z,99664
2018-06-01T21:49:53.530Z,99659
2018-06-01T21:52:21.667Z,99654
2018-06-01T21:54:49.831Z,99656
2018-06-01T21:57:17.973Z,99660
2018-06-01T21:59:46.909Z,99655
2018-06-01T22:02:15.061Z,99657
2018-06-01T22:04:43.194Z,99653
2018-06-01T22:07:11.417Z,99657
2018-06-01T22:09:39.547Z,99658
2018-06-01T22:12:07.724Z,99658
2018-06-01T22:14:35.846Z,99661
2018-06-01T22:17:04.746Z,99660
2018-06-01T22:19:32.903Z,99660
2018-06-01T22:22:01.821Z,99657
2018-06-01T22:24:29.948Z,99652
2018-06-01T22:26:58.086Z,99659
2018-06-01T22:29:26.211Z,99652
2018-06-01T22:31:54.351Z,99646
2018-06-01T22:34:22.625Z,99651
2018-06-01T22:36:50.750Z,99651
2018-06-01T22:39:19.684Z,99643
2018-06-01T22:41:47.839Z,99648
2018-06-01T22:44:16.727Z,99643
2018-06-01T22:46:44.881Z,99647
2018-06-01T22:49:13.037Z,99652
2018-06-01T22:51:41.195Z,99657
2018-06-01T22:54:09.314Z,99644
2018-06-01T22:56:37.433Z,99645
2018-06-01T22:59:06.352Z,99647
2018-06-01T23:01:34.513Z,99649
2018-06-01T23:04:03.434Z,99652
2018-06-01T23:06:31.589Z,99645
2018-06-01T23:09:00.494Z,99650
2018-06-01T23:11:28.600Z,99644
2018-06-01T23:13:56.781Z,99643
2018-06-01T23:16:24.909Z,99643
2018-06-01T23:18:53.816Z,99640
2018-06-01T23:21:21.949Z,99650
2018-06-01T23:23:50.065Z,99640
2018-06-01T23:26:19.006Z,99651
2018-06-01T23:28:47.165Z,99639
2018-06-01T23:31:15.354Z,99640
2018-06-01T23:33:43.503Z,99638
2018-06-01T23:36:11.618Z,99635
2018-06-01T23:38:39.753Z,99643
2018-06-01T23:41:07.892Z,99646
2018-06-01T23:43:36.048Z,99641
2018-06-01T23:46:04.190Z,99649
2018-06-01T23:48:32.337Z,99635
2018-06-01T23:51:00.511Z,99631
2018-06-01T23:53:28.645Z,99628
2018-06-01T23:55:56.772Z,99632
2018-06-01T23:58:24.905Z,99629
